createdAt,value
2017-10-01T00:02:01.453Z,8.73
2017-10-01T00:04:28.151Z,8.80
2017-10-01T00:06:54.731Z,8.47
2017-10-01T00:09:21.323Z,8.17
2017-10-01T00:11:47.906Z,7.73
2017-10-01T00:14:14.558Z,9.20
2017-10-01T00:16:41.211Z,9.40
2017-10-01T00:19:07.807Z,8.73
2017-10-01T00:21:34.390Z,8.63
2017-10-01T00:24:01.136Z,7.80
2017-10-01T00:26:27.715Z,8.00
2017-10-01T00:28:54.307Z,8.23
2017-10-01T00:31:20.898Z,8.20
2017-10-01T00:33:47.482Z,8.13
2017-10-01T00:36:14.083Z,8.50
2017-10-01T00:38:40.658Z,8.17
2017-10-01T00:41:07.401Z,8.47
2017-10-01T00:43:33.985Z,8.73
2017-10-01T00:46:00.566Z,9.03
2017-10-01T00:48:27.171Z,8.43
2017-10-01T00:50:53.747Z,9.20
2017-10-01T00:53:20.339Z,8.60
2017-10-01T00:55:46.930Z,8.70
2017-10-01T00:58:13.826Z,8.13
2017-10-01T01:00:40.410Z,8.80
2017-10-01T01:03:07.004Z,7.63
2017-10-01T01:05:33.586Z,9.00
2017-10-01T01:08:00.169Z,8.50
2017-10-01T01:10:26.779Z,8.83
2017-10-01T01:12:53.372Z,8.27
2017-10-01T01:15:19.958Z,8.40
2017-10-01T01:17:46.551Z,8.37
2017-10-01T01:20:13.286Z,8.10
2017-10-01T01:22:39.870Z,8.83
2017-10-01T01:25:06.457Z,8.90
2017-10-01T01:27:33.055Z,9.20
2017-10-01T01:29:59.638Z,8.03
2017-10-01T01:32:26.229Z,9.10
2017-10-01T01:34:52.815Z,9.20
2017-10-01T01:37:19.555Z,9.17
2017-10-01T01:39:46.126Z,9.20
2017-10-01T01:42:12.710Z,8.47
2017-10-01T01:44:39.303Z,7.93
2017-10-01T01:47:05.891Z,8.50
2017-10-01T01:49:32.478Z,8.87
2017-10-01T01:51:59.062Z,8.73
2017-10-01T01:54:25.658Z,8.73
2017-10-01T01:56:52.238Z,8.60
2017-10-01T01:59:18.834Z,9.10
2017-10-01T02:01:45.438Z,9.10
2017-10-01T02:04:12.018Z,9.00
2017-10-01T02:06:38.630Z,9.17
2017-10-01T02:09:05.218Z,9.80
2017-10-01T02:11:31.815Z,8.47
2017-10-01T02:13:58.394Z,9.20
2017-10-01T02:16:24.979Z,8.80
2017-10-01T02:18:51.571Z,9.20
2017-10-01T02:21:18.158Z,9.00
2017-10-01T02:23:44.754Z,8.67
2017-10-01T02:26:11.339Z,8.80
2017-10-01T02:28:37.934Z,9.07
2017-10-01T02:31:04.527Z,9.30
2017-10-01T02:33:31.116Z,9.67
2017-10-01T02:35:57.702Z,9.90
2017-10-01T02:38:24.287Z,9.23
2017-10-01T02:40:50.882Z,9.17
2017-10-01T02:43:17.471Z,9.63
2017-10-01T02:45:44.058Z,9.27
2017-10-01T02:48:10.654Z,9.30
2017-10-01T02:50:37.242Z,9.60
2017-10-01T02:53:03.841Z,9.20
2017-10-01T02:55:30.435Z,8.87
2017-10-01T02:57:57.045Z,9.20
2017-10-01T03:00:23.643Z,8.67
2017-10-01T03:02:55.947Z,9.10
2017-10-01T03:05:22.614Z,8.73
2017-10-01T03:07:49.188Z,9.03
2017-10-01T03:10:15.802Z,8.57
2017-10-01T03:12:42.386Z,8.00
2017-10-01T03:15:08.970Z,7.20
2017-10-01T03:17:35.563Z,8.97
2017-10-01T03:20:02.153Z,8.47
2017-10-01T03:22:28.742Z,8.43
2017-10-01T03:24:55.327Z,8.27
2017-10-01T03:27:22.071Z,9.30
2017-10-01T03:29:48.658Z,8.77
2017-10-01T03:32:15.242Z,8.67
2017-10-01T03:34:41.838Z,8.30
2017-10-01T03:37:08.443Z,8.40
2017-10-01T03:39:35.030Z,8.10
2017-10-01T03:42:01.634Z,7.43
2017-10-01T03:44:28.230Z,8.13
2017-10-01T03:46:54.814Z,8.43
2017-10-01T03:49:21.399Z,7.57
2017-10-01T03:51:47.989Z,7.50
2017-10-01T03:54:14.578Z,7.70
2017-10-01T03:56:41.174Z,7.60
2017-10-01T03:59:07.770Z,7.67
2017-10-01T04:01:34.471Z,7.50
2017-10-01T04:04:01.050Z,7.87
2017-10-01T04:06:27.633Z,7.40
2017-10-01T04:08:54.226Z,7.77
2017-10-01T04:11:20.809Z,7.70
2017-10-01T04:13:47.399Z,7.70
2017-10-01T04:16:13.978Z,7.33
2017-10-01T04:18:40.683Z,6.70
2017-10-01T04:21:07.265Z,6.80
2017-10-01T04:23:33.851Z,6.77
2017-10-01T04:26:00.443Z,8.13
2017-10-01T04:28:27.034Z,7.23
2017-10-01T04:30:53.722Z,7.53
2017-10-01T04:33:20.303Z,6.80
2017-10-01T04:35:46.901Z,6.77
2017-10-01T04:38:13.481Z,7.10
2017-10-01T04:40:40.070Z,7.50
2017-10-01T04:43:06.664Z,7.50
2017-10-01T04:45:33.246Z,7.00
2017-10-01T04:47:59.843Z,7.40
2017-10-01T04:50:26.451Z,6.90
2017-10-01T04:52:53.064Z,6.50
2017-10-01T04:55:19.654Z,6.43
2017-10-01T04:57:46.241Z,6.80
2017-10-01T05:00:12.829Z,7.00
2017-10-01T05:02:39.413Z,7.20
2017-10-01T05:05:06.342Z,6.70
2017-10-01T05:07:32.929Z,7.33
2017-10-01T05:09:59.514Z,7.57
2017-10-01T05:12:26.126Z,7.10
2017-10-01T05:14:52.693Z,7.47
2017-10-01T05:17:19.287Z,7.30
2017-10-01T05:19:45.866Z,7.70
2017-10-01T05:22:12.802Z,7.00
2017-10-01T05:24:39.382Z,7.00
2017-10-01T05:27:05.966Z,7.77
2017-10-01T05:29:32.572Z,6.70
2017-10-01T05:31:59.155Z,6.97
2017-10-01T05:34:25.750Z,6.93
2017-10-01T05:36:52.334Z,7.10
2017-10-01T05:39:18.926Z,7.50
2017-10-01T05:41:45.525Z,6.20
2017-10-01T05:44:12.094Z,6.90
2017-10-01T05:46:38.704Z,6.60
2017-10-01T05:49:05.286Z,7.57
2017-10-01T05:51:31.875Z,6.43
2017-10-01T05:53:58.487Z,7.40
2017-10-01T05:56:25.070Z,6.97
2017-10-01T05:58:51.669Z,7.60
2017-10-01T06:01:18.262Z,7.20
2017-10-01T06:03:44.850Z,7.83
2017-10-01T06:06:11.451Z,7.47
2017-10-01T06:08:38.034Z,7.30
2017-10-01T06:11:04.629Z,8.30
2017-10-01T06:13:31.212Z,7.23
2017-10-01T06:15:58.193Z,9.47
2017-10-01T06:18:24.770Z,8.40
2017-10-01T06:20:51.355Z,8.80
2017-10-01T06:23:17.955Z,8.30
2017-10-01T06:25:44.539Z,7.57
2017-10-01T06:28:11.126Z,8.37
2017-10-01T06:30:37.719Z,8.83
2017-10-01T06:33:04.335Z,8.70
2017-10-01T06:35:30.914Z,8.60
2017-10-01T06:37:57.506Z,9.00
2017-10-01T06:40:24.134Z,8.47
2017-10-01T06:42:50.726Z,8.90
2017-10-01T06:45:17.490Z,9.40
2017-10-01T06:47:44.074Z,8.50
2017-10-01T06:50:10.693Z,9.23
2017-10-01T06:52:37.280Z,9.13
2017-10-01T06:55:03.861Z,8.83
2017-10-01T06:57:30.463Z,9.20
2017-10-01T07:00:07.431Z,9.70
2017-10-01T07:02:34.026Z,9.50
2017-10-01T07:05:00.614Z,8.57
2017-10-01T07:07:27.210Z,8.63
2017-10-01T07:09:53.826Z,7.77
2017-10-01T07:12:20.435Z,8.17
2017-10-01T07:14:47.031Z,7.70
2017-10-01T07:17:13.622Z,8.00
2017-10-01T07:19:40.522Z,8.00
2017-10-01T07:22:07.107Z,7.47
2017-10-01T07:24:33.693Z,8.10
2017-10-01T07:27:00.286Z,8.03
2017-10-01T07:29:26.870Z,7.63
2017-10-01T07:31:53.458Z,8.50
2017-10-01T07:34:20.052Z,7.90
2017-10-01T07:36:46.735Z,8.17
2017-10-01T07:39:13.484Z,8.40
2017-10-01T07:41:40.369Z,9.57
2017-10-01T07:44:06.966Z,8.40
2017-10-01T07:46:33.552Z,8.10
2017-10-01T07:49:00.188Z,6.90
2017-10-01T07:51:26.770Z,8.40
2017-10-01T07:53:53.372Z,8.03
2017-10-01T07:56:19.958Z,9.40
2017-10-01T07:58:46.732Z,9.33
2017-10-01T08:01:13.314Z,9.80
2017-10-01T08:03:39.898Z,9.30
2017-10-01T08:06:06.491Z,9.47
2017-10-01T08:08:33.074Z,9.23
2017-10-01T08:10:59.670Z,9.33
2017-10-01T08:13:26.288Z,10.40
2017-10-01T08:15:52.982Z,8.97
2017-10-01T08:18:19.569Z,10.10
2017-10-01T08:20:46.164Z,10.53
2017-10-01T08:23:12.762Z,10.60
2017-10-01T08:25:39.775Z,8.63
2017-10-01T08:28:06.398Z,9.77
2017-10-01T08:30:32.982Z,9.70
2017-10-01T08:32:59.578Z,9.00
2017-10-01T08:35:26.184Z,8.80
2017-10-01T08:37:52.767Z,8.87
2017-10-01T08:40:19.364Z,9.00
2017-10-01T08:42:45.947Z,9.43
2017-10-01T08:45:12.542Z,9.67
2017-10-01T08:47:39.126Z,9.60
2017-10-01T08:50:06.070Z,9.90
2017-10-01T08:52:32.665Z,10.33
2017-10-01T08:54:59.261Z,9.30
2017-10-01T08:57:25.851Z,8.30
2017-10-01T08:59:52.486Z,9.70
2017-10-01T09:02:19.079Z,9.90
2017-10-01T09:04:45.698Z,9.87
2017-10-01T09:07:12.430Z,9.00
2017-10-01T09:09:39.038Z,8.87
2017-10-01T09:12:05.616Z,7.37
2017-10-01T09:14:32.222Z,8.40
2017-10-01T09:16:58.790Z,7.27
2017-10-01T09:19:25.378Z,7.23
2017-10-01T09:21:52.034Z,6.50
2017-10-01T09:24:18.634Z,6.43
2017-10-01T09:26:45.222Z,6.70
2017-10-01T09:29:11.807Z,7.70
2017-10-01T09:31:38.402Z,7.17
2017-10-01T09:34:05.032Z,6.87
2017-10-01T09:36:31.652Z,6.80
2017-10-01T09:38:58.248Z,6.17
2017-10-01T09:41:28.630Z,6.23
2017-10-01T09:43:58.178Z,5.43
2017-10-01T09:46:24.870Z,5.87
2017-10-01T09:48:51.462Z,5.63
2017-10-01T09:51:18.054Z,5.43
2017-10-01T09:53:44.643Z,4.80
2017-10-01T09:56:11.257Z,5.80
2017-10-01T09:58:43.923Z,5.17
2017-10-01T10:01:10.503Z,4.90
2017-10-01T10:03:37.143Z,5.00
2017-10-01T10:06:03.737Z,4.60
2017-10-01T10:08:30.318Z,4.77
2017-10-01T10:10:56.917Z,4.43
2017-10-01T10:13:23.494Z,4.30
2017-10-01T10:15:50.110Z,4.30
2017-10-01T10:18:16.698Z,3.90
2017-10-01T10:20:43.283Z,3.57
2017-10-01T10:23:09.873Z,3.10
2017-10-01T10:25:36.446Z,3.10
2017-10-01T10:28:03.358Z,3.43
2017-10-01T10:30:30.007Z,3.37
2017-10-01T10:32:56.583Z,3.00
2017-10-01T10:35:23.174Z,2.93
2017-10-01T10:37:49.760Z,3.33
2017-10-01T10:40:16.372Z,3.20
2017-10-01T10:42:43.011Z,3.00
2017-10-01T10:45:09.585Z,2.83
2017-10-01T10:47:36.235Z,3.30
2017-10-01T10:50:02.813Z,3.87
2017-10-01T10:52:29.395Z,2.70
2017-10-01T10:54:56.031Z,2.80
2017-10-01T10:57:22.619Z,2.77
2017-10-01T10:59:49.201Z,2.83
2017-10-01T11:02:15.799Z,3.13
2017-10-01T11:04:42.402Z,2.60
2017-10-01T11:07:08.977Z,2.70
2017-10-01T11:09:35.606Z,2.83
2017-10-01T11:12:02.171Z,2.40
2017-10-01T11:14:28.907Z,2.23
2017-10-01T11:16:55.490Z,2.90
2017-10-01T11:19:22.074Z,2.50
2017-10-01T11:21:54.474Z,3.53
2017-10-01T11:24:21.045Z,2.70
2017-10-01T11:26:47.651Z,2.80
2017-10-01T11:29:14.228Z,2.80
2017-10-01T11:31:40.820Z,2.90
2017-10-01T11:34:07.459Z,2.97
2017-10-01T11:36:34.058Z,3.20
2017-10-01T11:39:00.640Z,2.70
2017-10-01T11:41:27.238Z,2.70
2017-10-01T11:43:53.814Z,2.73
2017-10-01T11:46:28.346Z,2.73
2017-10-01T11:48:54.946Z,2.53
2017-10-01T11:51:21.530Z,2.50
2017-10-01T11:53:48.429Z,2.50
2017-10-01T11:56:15.024Z,2.53
2017-10-01T11:58:47.926Z,2.73
2017-10-01T12:01:20.814Z,2.20
2017-10-01T12:03:47.433Z,2.23
2017-10-01T12:06:20.306Z,2.30
2017-10-01T12:08:46.894Z,2.53
2017-10-01T12:11:13.515Z,2.70
2017-10-01T12:13:40.098Z,2.63
2017-10-01T12:16:06.687Z,2.47
2017-10-01T12:18:33.298Z,2.20
2017-10-01T12:20:59.894Z,2.40
2017-10-01T12:23:32.674Z,2.50
2017-10-01T12:25:59.266Z,2.13
2017-10-01T12:28:25.878Z,2.67
2017-10-01T12:30:52.441Z,2.30
2017-10-01T12:33:19.031Z,2.47
2017-10-01T12:35:45.661Z,2.57
2017-10-01T12:38:12.273Z,2.50
2017-10-01T12:40:38.853Z,2.17
2017-10-01T12:43:05.551Z,2.43
2017-10-01T12:45:39.582Z,2.40
2017-10-01T12:48:06.538Z,2.43
2017-10-01T12:50:33.118Z,2.10
2017-10-01T12:52:59.697Z,2.10
2017-10-01T12:55:26.370Z,2.07
2017-10-01T12:57:52.970Z,2.10
2017-10-01T13:00:25.364Z,2.83
2017-10-01T13:02:51.944Z,2.77
2017-10-01T13:05:19.351Z,2.17
2017-10-01T13:07:45.933Z,2.60
2017-10-01T13:10:12.665Z,2.10
2017-10-01T13:12:39.258Z,2.20
2017-10-01T13:15:05.834Z,2.60
2017-10-01T13:17:32.425Z,2.10
2017-10-01T13:19:59.008Z,2.10
2017-10-01T13:22:25.598Z,2.40
2017-10-01T13:24:52.179Z,2.00
2017-10-01T13:27:19.281Z,1.97
2017-10-01T13:29:45.858Z,1.70
2017-10-01T13:32:12.450Z,1.90
2017-10-01T13:34:39.070Z,2.07
2017-10-01T13:37:05.650Z,1.70
2017-10-01T13:39:32.242Z,2.07
2017-10-01T13:41:58.865Z,1.97
2017-10-01T13:44:25.450Z,1.60
2017-10-01T13:46:52.042Z,2.10
2017-10-01T13:49:18.640Z,2.23
2017-10-01T13:51:45.218Z,1.87
2017-10-01T13:54:12.427Z,2.20
2017-10-01T13:56:39.011Z,1.90
2017-10-01T13:59:05.595Z,1.67
2017-10-01T14:01:32.190Z,2.27
2017-10-01T14:03:58.774Z,1.97
2017-10-01T14:06:25.366Z,2.00
2017-10-01T14:08:51.961Z,2.20
2017-10-01T14:11:18.766Z,1.70
2017-10-01T14:13:45.346Z,1.93
2017-10-01T14:16:12.974Z,1.80
2017-10-01T14:18:39.574Z,2.50
2017-10-01T14:21:06.785Z,2.30
2017-10-01T14:23:33.362Z,2.20
2017-10-01T14:25:59.950Z,2.20
2017-10-01T14:28:26.825Z,2.00
2017-10-01T14:30:59.122Z,2.00
2017-10-01T14:33:25.794Z,2.30
2017-10-01T14:35:52.370Z,2.20
2017-10-01T14:38:26.515Z,2.50
2017-10-01T14:40:53.119Z,2.40
2017-10-01T14:43:19.698Z,2.40
2017-10-01T14:45:46.287Z,2.30
2017-10-01T14:48:12.874Z,2.80
2017-10-01T14:50:39.446Z,2.60
2017-10-01T14:53:06.038Z,2.17
2017-10-01T14:55:32.617Z,2.40
2017-10-01T14:57:59.386Z,2.30
2017-10-01T15:00:25.967Z,1.93
2017-10-01T15:02:52.542Z,2.00
2017-10-01T15:05:19.155Z,2.00
2017-10-01T15:07:45.744Z,2.50
2017-10-01T15:10:12.333Z,2.40
2017-10-01T15:12:38.915Z,2.40
2017-10-01T15:15:05.662Z,2.20
2017-10-01T15:17:32.242Z,2.40
2017-10-01T15:19:58.826Z,2.10
2017-10-01T15:22:25.415Z,1.80
2017-10-01T15:24:51.998Z,2.20
2017-10-01T15:27:18.590Z,2.17
2017-10-01T15:29:45.170Z,2.60
2017-10-01T15:32:12.077Z,2.40
2017-10-01T15:34:38.678Z,2.10
2017-10-01T15:37:05.263Z,2.60
2017-10-01T15:39:31.885Z,1.97
2017-10-01T15:41:58.458Z,1.90
2017-10-01T15:44:25.047Z,2.03
2017-10-01T15:46:51.643Z,2.37
2017-10-01T15:49:18.259Z,2.30
2017-10-01T15:51:44.847Z,2.37
2017-10-01T15:54:11.423Z,2.00
2017-10-01T15:56:38.010Z,2.37
2017-10-01T15:59:04.590Z,2.20
2017-10-01T16:01:31.175Z,2.20
2017-10-01T16:03:57.755Z,2.40
2017-10-01T16:06:24.378Z,2.60
2017-10-01T16:08:50.958Z,2.43
2017-10-01T16:11:17.897Z,3.07
2017-10-01T16:13:47.891Z,2.70
2017-10-01T16:16:14.489Z,3.10
2017-10-01T16:18:41.118Z,2.93
2017-10-01T16:21:07.705Z,3.00
2017-10-01T16:23:34.326Z,2.40
2017-10-01T16:26:00.906Z,2.57
2017-10-01T16:28:27.497Z,2.40
2017-10-01T16:30:54.110Z,2.50
2017-10-01T16:33:20.694Z,3.03
2017-10-01T16:35:47.286Z,3.00
2017-10-01T16:38:14.618Z,3.00
2017-10-01T16:40:41.293Z,3.30
2017-10-01T16:43:07.886Z,3.57
2017-10-01T16:45:37.675Z,3.67
2017-10-01T16:48:07.402Z,3.13
2017-10-01T16:50:37.418Z,3.07
2017-10-01T16:53:05.818Z,3.30
2017-10-01T16:55:32.643Z,3.40
2017-10-01T16:58:06.809Z,2.97
2017-10-01T17:00:33.391Z,3.47
2017-10-01T17:03:00.019Z,3.30
2017-10-01T17:05:26.606Z,3.33
2017-10-01T17:07:53.187Z,3.07
2017-10-01T17:10:19.822Z,2.70
2017-10-01T17:12:46.417Z,2.80
2017-10-01T17:15:13.142Z,3.10
2017-10-01T17:17:39.738Z,3.33
2017-10-01T17:20:06.326Z,3.43
2017-10-01T17:22:38.569Z,3.90
2017-10-01T17:25:05.159Z,3.10
2017-10-01T17:27:31.756Z,3.30
2017-10-01T17:29:58.404Z,3.23
2017-10-01T17:32:25.019Z,3.10
2017-10-01T17:34:51.608Z,3.70
2017-10-01T17:37:18.227Z,3.00
2017-10-01T17:39:44.921Z,2.93
2017-10-01T17:42:11.555Z,3.20
2017-10-01T17:44:38.125Z,3.20
2017-10-01T17:47:04.700Z,3.50
2017-10-01T17:49:31.317Z,4.03
2017-10-01T17:51:57.898Z,3.40
2017-10-01T17:54:24.572Z,3.63
2017-10-01T17:56:51.162Z,3.60
2017-10-01T17:59:17.754Z,3.60
2017-10-01T18:01:44.494Z,3.63
2017-10-01T18:04:11.078Z,3.83
2017-10-01T18:06:37.667Z,4.20
2017-10-01T18:09:04.255Z,4.10
2017-10-01T18:11:30.901Z,4.07
2017-10-01T18:13:57.561Z,3.80
2017-10-01T18:16:24.163Z,4.37
2017-10-01T18:18:50.752Z,4.37
2017-10-01T18:21:17.423Z,4.03
2017-10-01T18:23:44.007Z,4.07
2017-10-01T18:26:10.610Z,3.93
2017-10-01T18:28:37.194Z,4.20
2017-10-01T18:31:03.778Z,4.60
2017-10-01T18:33:30.370Z,4.30
2017-10-01T18:35:57.006Z,4.07
2017-10-01T18:38:23.758Z,4.30
2017-10-01T18:40:50.344Z,4.87
2017-10-01T18:43:16.941Z,4.30
2017-10-01T18:45:43.522Z,4.10
2017-10-01T18:48:10.142Z,4.73
2017-10-01T18:50:36.880Z,3.93
2017-10-01T18:53:03.459Z,4.00
2017-10-01T18:55:30.064Z,4.17
2017-10-01T18:57:56.655Z,4.23
2017-10-01T19:00:23.234Z,3.80
2017-10-01T19:02:49.904Z,4.20
2017-10-01T19:05:16.513Z,4.23
2017-10-01T19:07:43.086Z,4.97
2017-10-01T19:10:09.683Z,3.90
2017-10-01T19:12:36.274Z,3.63
2017-10-01T19:15:02.917Z,4.07
2017-10-01T19:17:29.524Z,4.30
2017-10-01T19:19:56.154Z,4.20
2017-10-01T19:22:22.739Z,3.90
2017-10-01T19:24:49.323Z,3.80
2017-10-01T19:27:19.480Z,3.70
2017-10-01T19:29:47.874Z,3.20
2017-10-01T19:32:14.503Z,3.60
2017-10-01T19:34:41.136Z,3.90
2017-10-01T19:37:07.731Z,3.70
2017-10-01T19:39:34.689Z,3.87
2017-10-01T19:42:01.272Z,4.07
2017-10-01T19:44:31.482Z,3.50
2017-10-01T19:47:01.546Z,3.70
2017-10-01T19:49:28.187Z,3.60
2017-10-01T19:51:54.798Z,3.50
2017-10-01T19:54:21.378Z,3.97
2017-10-01T19:56:47.959Z,3.80
2017-10-01T19:59:14.547Z,4.07
2017-10-01T20:01:41.126Z,3.87
2017-10-01T20:04:08.598Z,3.60
2017-10-01T20:06:35.232Z,3.73
2017-10-01T20:09:01.862Z,4.00
2017-10-01T20:11:28.438Z,4.13
2017-10-01T20:13:55.063Z,3.67
2017-10-01T20:16:21.634Z,4.03
2017-10-01T20:18:48.222Z,4.00
2017-10-01T20:21:14.814Z,3.90
2017-10-01T20:23:41.449Z,3.83
2017-10-01T20:26:09.007Z,3.70
2017-10-01T20:28:35.627Z,3.33
2017-10-01T20:31:02.229Z,4.13
2017-10-01T20:33:29.024Z,3.50
2017-10-01T20:35:55.598Z,3.80
2017-10-01T20:38:32.462Z,4.30
2017-10-01T20:40:59.090Z,4.10
2017-10-01T20:43:25.670Z,3.63
2017-10-01T20:48:36.232Z,3.90
2017-10-01T20:51:02.834Z,3.70
2017-10-01T20:53:29.418Z,3.40
2017-10-01T20:55:55.985Z,3.60
2017-10-01T20:58:22.569Z,3.50
2017-10-01T21:00:49.144Z,3.53
2017-10-01T21:03:15.713Z,3.97
2017-10-01T21:05:42.293Z,3.40
2017-10-01T21:08:08.971Z,3.60
2017-10-01T21:10:35.542Z,3.70
2017-10-01T21:13:02.116Z,4.00
2017-10-01T21:15:28.693Z,3.37
2017-10-01T21:17:55.265Z,3.40
2017-10-01T21:20:21.837Z,3.43
2017-10-01T21:22:48.420Z,3.33
2017-10-01T21:25:15.010Z,3.50
2017-10-01T21:27:41.617Z,3.63
2017-10-01T21:30:08.201Z,3.57
2017-10-01T21:32:34.861Z,3.50
2017-10-01T21:35:01.429Z,3.63
2017-10-01T21:37:28.006Z,3.70
2017-10-01T21:39:54.580Z,3.10
2017-10-01T21:42:21.164Z,3.30
2017-10-01T21:44:47.740Z,2.97
2017-10-01T21:47:14.323Z,3.80
2017-10-01T21:49:40.897Z,3.30
2017-10-01T21:52:07.476Z,3.53
2017-10-01T21:54:34.044Z,3.67
2017-10-01T21:57:00.777Z,3.00
2017-10-01T21:59:27.353Z,3.23
2017-10-01T22:01:53.933Z,3.67
2017-10-01T22:04:20.512Z,3.47
2017-10-01T22:06:47.092Z,3.60
2017-10-01T22:09:13.932Z,3.63
2017-10-01T22:11:40.503Z,3.40
2017-10-01T22:14:07.068Z,3.93
2017-10-01T22:16:33.641Z,3.60
2017-10-01T22:19:00.217Z,3.40
2017-10-01T22:21:26.814Z,3.53
2017-10-01T22:23:53.464Z,3.20
2017-10-01T22:26:20.213Z,4.17
2017-10-01T22:28:46.792Z,4.17
2017-10-01T22:31:13.360Z,3.57
2017-10-01T22:33:39.941Z,3.40
2017-10-01T22:36:06.517Z,3.60
2017-10-01T22:38:33.092Z,3.70
2017-10-01T22:40:59.668Z,3.17
2017-10-01T22:43:26.273Z,3.50
2017-10-01T22:45:52.860Z,3.40
2017-10-01T22:48:19.417Z,3.57
2017-10-01T22:50:45.996Z,3.10
2017-10-01T22:53:12.576Z,3.10
2017-10-01T22:55:39.448Z,3.63
2017-10-01T22:58:06.094Z,3.50
2017-10-01T23:00:32.648Z,3.40
2017-10-01T23:02:59.232Z,3.70
2017-10-01T23:05:25.805Z,3.00
2017-10-01T23:07:52.397Z,3.53
2017-10-01T23:10:18.969Z,2.97
2017-10-01T23:12:45.545Z,2.87
2017-10-01T23:15:12.146Z,3.13
2017-10-01T23:17:38.741Z,3.30
2017-10-01T23:20:05.304Z,3.30
2017-10-01T23:22:31.925Z,3.20
2017-10-01T23:24:58.501Z,3.17
2017-10-01T23:27:25.084Z,3.13
2017-10-01T23:29:51.657Z,3.03
2017-10-01T23:32:18.396Z,3.00
2017-10-01T23:34:44.976Z,3.10
2017-10-01T23:37:11.557Z,3.37
2017-10-01T23:39:38.154Z,3.90
2017-10-01T23:42:04.709Z,3.40
2017-10-01T23:44:31.293Z,3.30
2017-10-01T23:46:57.865Z,3.43
2017-10-01T23:49:24.565Z,3.40
2017-10-01T23:51:51.145Z,3.20
2017-10-01T23:54:17.720Z,3.10
2017-10-01T23:56:44.305Z,2.90
2017-10-01T23:59:10.885Z,3.20
